< < Back
Terminal Aerodrome Forecast


Current Version              Previous Versions:   1  2  3  4  5  6  7  8  9  

Terminal Aerodrome Forecast

503
FTUS44 KMOB 251736
TAFMOB
TAF
KMOB 251736Z 2518/2618 12010KT P6SM VCSH SCT030 BKN050
     FM260000 13005KT P6SM SCT025
     FM260800 11008KT P6SM VCSH BKN025
     FM261200 13010KT 4SM -TSRA BKN020CB OVC035=



Latest METAR

634
SAUS80 KWBC 252100 CCA
MTRMOB
METAR KMOB 252056Z 13015KT 10SM FEW037 SCT045 BKN050 32/23 A2995 RMK AO2
SLP137 60000 T03170228 56015 $


USA.gov is the U.S. government's official web portal to all federal, state and local government web resources and services.